Terminal Aerodrome Forecast
Issued by NWS Corpus Christi, TX

Current Version | Previous Version | Text Only | Print | Product List | Glossary On
Versions: 1 2 3 4 5 6 7 8 9 10 11 12 13 14 15
528
FTUS44 KCRP 132342
TAFCRP
TAF
KCRP 132342Z 1400/1424 13014KT P6SM SCT040 SCT250
     FM140200 14010KT P6SM SCT015
     FM141000 16008KT P6SM SCT012 BKN250
      TEMPO 1410/1414 BKN012
     FM141500 17016G21KT P6SM SCT025 BKN250
     FM141800 16022G28KT P6SM SCT035 BKN250=

USA.gov is the U.S. government's official web portal to all federal, state and local government web resources and services.